Stations météo

réclame
Mon MeteoGroup
Stabroek, Belgique (6438): Température de l'air & dewpoint: 20.10.2020 22:00:00 - 26.10.2020 22:00:00 (CET)Stabroek, Belgique (6438): Vitesse du vent & gusts: 20.10.2020 22:00:00 - 26.10.2020 22:00:00 (CET)Stabroek, Belgique (6438): Direction du vent: 20.10.2020 22:00:00 - 26.10.2020 22:00:00 (CET)Stabroek, Belgique (6438): reduced air pressure: 20.10.2020 22:00:00 - 26.10.2020 22:00:00 (CET)Stabroek, Belgique (6438): Ensoleillement: 20.10.2020 22:00:00 - 26.10.2020 22:00:00 (CET)Stabroek, Belgique (6438): Quantités de précipitations: 20.10.2020 22:00:00 - 26.10.2020 22:00:00 (CET)
Date & Time tt [°C] td [°C] ff [km/h] ff [knt] fx [km/h] fx [knt] dd ppp [hPa] sd [min] rr [mm]
26.10.2020 22:00:00 - - - - - - - - - -
26.10.2020 21:00:00 11,2 8,1 24 13 41 22 SSW 1001,9 0 0,0
26.10.2020 20:00:00 11,5 8,3 26 14 41 22 SSW 1001,6 0 0,0
26.10.2020 19:00:00 11,8 7,8 22 12 42 23 SSW 1001,6 0 0,0
26.10.2020 18:00:00 12,0 7,8 23 12 43 23 SSW 1001,2 6 0,0
26.10.2020 17:00:00 12,2 7,8 26 14 41 22 SSW 1001,0 12 0,0
26.10.2020 16:00:00 12,7 8,0 23 12 44 24 SSW 1000,8 2 0,0
26.10.2020 15:00:00 12,9 7,6 28 15 45 25 SW 1000,4 33 0,0
26.10.2020 14:00:00 13,0 7,5 31 17 47 25 SSW 1000,4 21 0,0
26.10.2020 13:00:00 12,8 8,1 25 14 42 23 SSW 1000,5 46 0,0
26.10.2020 12:00:00 11,8 7,6 26 14 42 23 SSW 1000,8 57 0,0
26.10.2020 11:00:00 10,3 7,3 31 17 48 26 SSW 1001,2 25 0,0
26.10.2020 10:00:00 9,8 7,2 31 17 46 25 SSW 1001,4 0 0,0
26.10.2020 09:00:00 9,7 7,3 22 12 43 23 SSW 1001,2 2 0,0
26.10.2020 08:00:00 9,7 7,3 24 13 41 22 SSW 1001,4 0 0,0
26.10.2020 07:00:00 9,8 7,8 22 12 42 23 SSW 1000,7 0 0,0
26.10.2020 06:00:00 9,9 7,8 28 15 39 21 SSW 1000,4 0 0,0
26.10.2020 05:00:00 9,9 8,4 28 15 41 22 SSW 1000,4 0 0,0
26.10.2020 04:00:00 9,7 8,7 19 10 35 19 S 1000,5 0 0,0
26.10.2020 03:00:00 9,6 8,5 21 12 32 17 SSW 999,9 0 0,0
26.10.2020 02:00:00 9,8 8,9 21 11 41 22 SSW 1000,1 0 0,0
26.10.2020 01:00:00 10,5 9,1 18 10 29 16 S 1000,6 0 0,0
26.10.2020 00:00:00 10,6 9,0 16 9 30 16 S 1001,0 0 0,0
25.10.2020 23:00:00 11,1 9,4 17 9 34 18 S 1000,7 0 0,0
25.10.2020 22:00:00 11,7 9,8 21 11 34 19 S 1000,7 0 0,0
25.10.2020 21:00:00 11,3 9,4 18 10 32 18 S 1000,8 0 0,0
25.10.2020 20:00:00 11,2 9,4 17 9 29 15 S 1001,2 0 0,0
25.10.2020 19:00:00 11,7 9,5 22 12 38 20 S 1001,2 0 0,0
25.10.2020 18:00:00 12,1 9,7 22 12 36 19 S 1001,5 0 0,0
25.10.2020 17:00:00 12,6 10,1 18 10 34 19 SSW 1001,5 0 0,0
25.10.2020 16:00:00 12,6 10,3 19 10 35 19 S 1000,8 0 0,0
25.10.2020 15:00:00 12,7 10,3 22 12 37 20 SSW 1001,1 0 0,0
25.10.2020 14:00:00 12,8 10,6 21 11 35 19 S 1001,6 0 0,0
25.10.2020 13:00:00 12,8 10,6 22 12 36 20 SSW 1001,6 0 0,0
25.10.2020 12:00:00 12,7 10,6 26 14 38 21 SSW 1002,0 0 0,0
25.10.2020 11:00:00 12,6 11,4 14 8 30 16 S 1001,9 0 0,0
25.10.2020 10:00:00 12,5 10,5 22 12 32 17 SSW 1001,9 0 0,0
25.10.2020 09:00:00 12,2 10,5 24 13 43 23 SSW 1002,4 0 0,0
25.10.2020 08:00:00 11,9 10,3 25 13 42 23 S 1001,9 0 0,1
25.10.2020 07:00:00 11,8 10,3 22 12 40 22 S 1001,2 0 0,0
25.10.2020 06:00:00 12,5 11,0 18 10 51 28 SSW 1001,6 0 2,0
25.10.2020 05:00:00 15,0 11,6 37 20 67 36 S 1000,6 0 0,0
25.10.2020 04:00:00 15,5 11,3 29 16 55 30 S 1001,3 0 0,0
25.10.2020 03:00:00 15,6 11,5 32 17 63 34 S 1001,6 0 0,0
25.10.2020 02:00:00 15,8 11,7 35 19 56 30 S 1002,2 0 0,0
25.10.2020 01:00:00 - - - - - - - - - -
25.10.2020 00:00:00 15,8 12,7 34 19 58 32 S 1003,6 0 0,0
24.10.2020 23:00:00 16,1 12,7 34 19 55 30 S 1004,0 0 0,0
24.10.2020 22:00:00 15,9 12,9 35 19 57 31 S 1004,4 0 0,0
24.10.2020 21:00:00 15,9 13,2 32 18 51 28 S 1005,2 0 0,0
24.10.2020 20:00:00 15,6 13,4 31 17 50 27 S 1006,0 0 0,0
24.10.2020 19:00:00 15,4 13,0 29 16 42 23 S 1006,6 0 0,0
24.10.2020 18:00:00 15,4 13,0 25 13 42 23 S 1007,3 0 0,0
24.10.2020 17:00:00 15,6 13,2 24 13 45 24 S 1007,8 0 0,0
24.10.2020 16:00:00 15,7 13,1 24 13 43 23 S 1008,4 0 0,0
24.10.2020 15:00:00 15,2 13,3 23 12 44 24 S 1009,1 3 0,0
24.10.2020 14:00:00 14,7 13,2 24 13 42 23 S 1009,7 0 0,0
24.10.2020 13:00:00 15,5 12,2 23 12 41 22 SSW 1010,3 4 0,0
24.10.2020 12:00:00 14,6 11,6 27 15 44 24 SSW 1011,0 8 0,0
24.10.2020 11:00:00 13,8 11,8 29 15 46 25 SSW 1011,4 3 0,0
24.10.2020 10:00:00 13,2 12,1 20 11 44 24 SSW 1011,5 0 0,0
24.10.2020 09:00:00 12,6 12,0 26 14 42 23 SSW 1011,6 0 0,0
24.10.2020 08:00:00 12,6 12,1 25 14 44 24 SSW 1011,4 0 0,0
24.10.2020 07:00:00 12,8 11,5 22 12 35 19 S 1011,3 0 0,0
24.10.2020 06:00:00 12,7 11,2 25 14 38 20 SSW 1011,9 0 0,0
24.10.2020 05:00:00 12,2 11,8 17 9 32 18 SSW 1012,0 0 0,0
24.10.2020 04:00:00 12,8 11,5 22 12 37 20 SSW 1012,1 0 0,0
24.10.2020 03:00:00 13,2 11,2 21 12 37 20 SSW 1012,4 0 0,0
24.10.2020 02:00:00 13,2 11,6 19 10 36 19 SSW 1012,5 0 0,0
24.10.2020 01:00:00 12,9 11,6 14 8 29 16 SSW 1012,4 0 0,0
24.10.2020 00:00:00 13,0 11,5 19 11 27 15 SSW 1012,2 0 0,0
23.10.2020 23:00:00 13,4 11,4 16 9 31 17 SW 1012,2 0 0,0
23.10.2020 22:00:00 14,3 11,8 19 10 34 18 SW 1011,9 0 0,0
23.10.2020 21:00:00 14,7 11,4 16 9 33 18 SW 1011,0 0 0,0
23.10.2020 20:00:00 14,6 11,3 15 8 34 18 SW 1010,7 0 0,0
23.10.2020 19:00:00 15,1 12,1 18 10 27 15 SSW 1010,6 0 0,0
23.10.2020 18:00:00 15,7 12,4 18 10 25 13 SSW 1010,3 0 0,0
23.10.2020 17:00:00 16,2 12,2 16 9 30 16 SSW 1010,0 32 0,0
23.10.2020 16:00:00 17,4 12,5 22 12 31 17 SW 1010,0 57 0,0
23.10.2020 15:00:00 17,1 13,8 18 10 27 15 S 1009,8 47 0,0
23.10.2020 14:00:00 16,5 14,1 18 10 28 15 S 1009,9 48 0,0
23.10.2020 13:00:00 14,5 13,5 14 8 26 14 SSW 1010,3 5 0,0
23.10.2020 12:00:00 13,6 13,6 17 9 23 12 SSW 1010,8 0 0,0
23.10.2020 11:00:00 13,7 13,7 10 5 18 10 SSW 1011,0 0 0,0
23.10.2020 10:00:00 12,2 12,2 7 4 18 10 SSE 1011,1 0 0,0
23.10.2020 09:00:00 10,9 10,9 4 2 9 5 E 1011,2 0 0,0
23.10.2020 08:00:00 10,4 10,4 4 2 9 5 ESE 1011,0 0 0,0
23.10.2020 07:00:00 9,7 9,7 4 2 10 6 E 1010,8 0 0,0
23.10.2020 06:00:00 7,2 7,2 6 3 9 5 SE 1011,2 0 0,0
23.10.2020 05:00:00 8,1 8,1 4 2 6 3 E 1011,4 0 0,0
23.10.2020 04:00:00 7,9 7,9 6 4 9 5 SE 1011,9 0 0,0
23.10.2020 03:00:00 7,9 7,9 4 2 6 3 E 1012,3 0 0,0
23.10.2020 02:00:00 10,0 10,0 4 2 6 3 N 1012,6 0 0,0
23.10.2020 01:00:00 10,7 10,4 4 2 15 8 N 1012,7 0 0,0
23.10.2020 00:00:00 12,6 11,0 9 5 16 9 SSW 1012,7 0 0,0
22.10.2020 23:00:00 13,4 11,3 12 7 27 15 SW 1012,7 0 0,0
22.10.2020 22:00:00 13,5 11,4 12 6 19 10 SW 1012,7 0 0,0
22.10.2020 21:00:00 13,4 12,3 10 5 17 9 SW 1012,4 0 0,0
22.10.2020 20:00:00 13,3 12,2 10 5 16 9 SW 1012,0 0 0,0
22.10.2020 19:00:00 14,3 12,5 7 4 16 9 SW 1011,9 0 0,0
22.10.2020 18:00:00 15,3 12,1 10 6 23 12 SSW 1011,3 25 0,0
22.10.2020 17:00:00 16,8 12,1 16 8 29 15 SW 1011,2 35 0,0
22.10.2020 16:00:00 16,7 10,8 16 8 29 15 SSW 1011,0 19 0,0
22.10.2020 15:00:00 16,8 11,9 15 8 30 16 SW 1010,9 12 0,0
22.10.2020 14:00:00 16,4 12,1 18 10 35 19 SW 1011,4 11 0,1
22.10.2020 13:00:00 16,6 12,6 22 12 32 17 SSW 1011,5 9 0,0
22.10.2020 12:00:00 16,1 11,5 23 12 34 18 SSW 1011,7 21 0,0
22.10.2020 11:00:00 15,8 11,9 23 12 35 19 SSW 1011,8 38 0,0
22.10.2020 10:00:00 14,7 11,8 23 12 34 19 SSW 1011,8 54 0,0
22.10.2020 09:00:00 13,8 11,6 18 10 33 18 SSW 1011,3 55 0,0
22.10.2020 08:00:00 13,0 11,6 21 12 31 17 SSW 1010,8 0 0,0
22.10.2020 07:00:00 13,1 11,7 18 10 25 14 S 1009,8 0 0,0
22.10.2020 06:00:00 13,6 12,1 19 10 29 16 SSW 1009,7 0 0,0
22.10.2020 05:00:00 13,8 12,4 16 9 37 20 SSW 1009,3 0 0,0
22.10.2020 04:00:00 14,5 12,5 25 13 37 20 SSW 1009,5 0 0,0
22.10.2020 03:00:00 14,8 12,8 21 11 29 15 SSW 1009,0 0 0,0
22.10.2020 02:00:00 15,2 13,5 16 9 27 15 SSW 1008,7 0 0,0
22.10.2020 01:00:00 15,8 13,8 22 12 35 19 SSW 1008,3 0 0,0
22.10.2020 00:00:00 16,0 14,2 18 10 36 19 SW 1007,6 0 0,0
21.10.2020 23:00:00 16,5 14,0 16 9 33 18 SW 1007,3 0 0,0
21.10.2020 22:00:00 17,0 13,4 23 12 55 30 SW 1006,5 0 0,0
21.10.2020 21:00:00 17,5 12,8 32 17 53 29 SW 1005,5 0 0,0
21.10.2020 20:00:00 18,1 12,8 27 14 47 25 SW 1004,1 0 0,0
21.10.2020 19:00:00 19,1 12,8 32 18 66 36 SW 1002,6 0 0,0
21.10.2020 18:00:00 19,6 13,1 43 23 67 36 SSW 1001,3 0 0,0
21.10.2020 17:00:00 20,0 13,2 37 20 69 37 SSW 1000,1 2 0,0
21.10.2020 16:00:00 20,6 13,2 42 23 72 39 SSW 999,1 13 0,0
21.10.2020 15:00:00 20,4 13,6 44 24 66 36 SSW 998,2 4 0,0
21.10.2020 14:00:00 20,2 13,6 42 23 78 42 S 997,8 25 0,0
21.10.2020 13:00:00 20,3 13,3 47 25 71 39 S 997,7 53 0,0
21.10.2020 12:00:00 17,4 13,2 29 16 48 26 SSE 998,2 17 0,0
21.10.2020 11:00:00 14,0 12,6 26 14 37 20 SE 999,2 0 0,0
21.10.2020 10:00:00 13,4 13,1 17 9 37 20 SE 1000,4 0 1,3
21.10.2020 09:00:00 12,9 12,8 18 10 27 14 SSE 1001,6 0 2,1
21.10.2020 08:00:00 12,7 12,7 18 10 29 15 SE 1001,7 0 2,1
21.10.2020 07:00:00 12,9 12,9 11 6 27 15 SE 1002,0 0 2,4
21.10.2020 06:00:00 13,1 13,1 13 7 27 15 SSE 1002,9 0 0,7
21.10.2020 05:00:00 13,4 13,3 15 8 21 11 SE 1003,1 0 0,6
21.10.2020 04:00:00 13,6 13,4 11 6 16 9 SE 1003,6 0 0,3
21.10.2020 03:00:00 13,9 13,4 10 5 21 11 SE 1004,4 0 0,2
21.10.2020 02:00:00 14,2 13,3 14 7 23 12 SSE 1005,0 0 0,0
21.10.2020 01:00:00 14,4 13,3 14 8 24 13 SSE 1005,5 0 0,0
21.10.2020 00:00:00 14,6 13,5 15 8 26 14 SSE 1005,8 0 0,0
20.10.2020 23:00:00 14,8 13,6 18 10 36 19 S 1006,4 0 0,0
20.10.2020 22:00:00 14,7 13,6 18 10 31 17 SSE 1006,6 0 0,0

tt = Température de l'air
td = dewpoint
ff = Vitesse du vent
fx = gusts
dd = Direction du vent
ppp = reduced air pressure
sd = Ensoleillement
rr = Quantités de précipitations

stations d'obs. à proximité